Time;durP1;ratioP1;P1;durP2;ratioP2;P2;SDS_P1;SDS_P2;PMS_P1;PMS_P2;Temp;Humidity;BMP_temperature;BMP_pressure;BME280_temperature;BME280_humidity;BME280_pressure;Samples;Min_cycle;Max_cycle;Signal;HPM_P1;HPM_P2
2023/04/18 00:01:05;;;;;;;11.60;7.60;;;;;;;5.93;100.00;101044.95;109410;1244;72222;-70
2023/04/18 00:03:35;;;;;;;12.00;6.80;;;;;;;5.88;100.00;101042.17;109410;1244;71575;-70
2023/04/18 00:06:05;;;;;;;12.10;7.50;;;;;;;5.82;100.00;101040.39;109327;1244;74134;-71
2023/04/18 00:08:34;;;;;;;13.60;7.50;;;;;;;5.77;100.00;101041.35;109342;1248;63045;-70
2023/04/18 00:11:02;;;;;;;10.90;7.30;;;;;;;5.74;100.00;101036.64;109442;1246;61425;-70
2023/04/18 00:13:31;;;;;;;12.20;6.70;;;;;;;5.70;100.00;101032.16;109470;1246;61233;-71
2023/04/18 00:16:01;;;;;;;12.90;6.90;;;;;;;5.66;100.00;101031.84;109482;1247;61541;-70
2023/04/18 00:18:30;;;;;;;11.40;6.70;;;;;;;5.59;100.00;101026.94;109463;1244;69724;-70
2023/04/18 00:20:59;;;;;;;11.90;6.30;;;;;;;5.54;100.00;101027.20;109396;1244;74598;-69
2023/04/18 00:23:29;;;;;;;10.20;6.20;;;;;;;5.49;100.00;101029.33;109391;1246;61562;-69
2023/04/18 00:25:57;;;;;;;11.60;6.40;;;;;;;5.44;100.00;101023.67;109409;1247;61548;-69
2023/04/18 00:28:26;;;;;;;13.60;7.40;;;;;;;5.39;100.00;101020.80;109425;1246;62687;-70
2023/04/18 00:30:55;;;;;;;10.90;6.70;;;;;;;5.35;100.00;101016.86;108951;1250;61695;-70
2023/04/18 00:33:24;;;;;;;11.40;6.30;;;;;;;5.32;100.00;101017.67;109342;1248;59143;-70
2023/04/18 00:35:53;;;;;;;10.90;6.70;;;;;;;5.29;100.00;101013.48;109321;1247;73974;-70
2023/04/18 00:38:21;;;;;;;12.70;7.30;;;;;;;5.28;100.00;101010.42;108996;1249;63163;-70
2023/04/18 00:40:50;;;;;;;9.30;6.10;;;;;;;5.27;100.00;101009.77;109042;1250;57177;-69
2023/04/18 00:43:23;;;;;;;10.80;7.00;;;;;;;5.27;100.00;101006.16;109200;1244;62026;-70
2023/04/18 00:45:52;;;;;;;13.10;7.00;;;;;;;5.21;100.00;101009.35;109191;1245;72784;-69
2023/04/18 00:48:20;;;;;;;10.70;6.70;;;;;;;5.14;100.00;101010.20;109042;1245;70939;-69
2023/04/18 00:50:49;;;;;;;10.90;7.30;;;;;;;5.06;100.00;101013.98;109095;1248;62819;-69
2023/04/18 00:53:18;;;;;;;12.60;7.20;;;;;;;5.02;100.00;101016.74;109067;1248;57075;-69
2023/04/18 00:55:47;;;;;;;10.80;7.20;;;;;;;5.00;100.00;101017.04;109011;1246;59503;-70
2023/04/18 00:58:16;;;;;;;14.40;7.60;;;;;;;4.99;100.00;101018.30;109089;1246;62637;-69
2023/04/18 01:00:45;;;;;;;11.70;6.90;;;;;;;4.99;100.00;101020.02;109085;1245;72144;-70
2023/04/18 01:03:14;;;;;;;11.40;6.70;;;;;;;4.97;100.00;101021.80;109281;1244;69904;-72
2023/04/18 01:05:45;;;;;;;10.30;6.30;;;;;;;4.94;100.00;101008.66;109221;1246;71439;-69
2023/04/18 01:08:14;;;;;;;10.00;6.30;;;;;;;4.99;100.00;101012.56;109064;1245;63430;-70
2023/04/18 01:10:43;;;;;;;13.60;7.40;;;;;;;4.97;100.00;101012.65;109109;1244;57182;-70
2023/04/18 01:13:18;;;;;;;12.80;7.50;;;;;;;4.95;100.00;101017.78;109096;1247;62535;-69
2023/04/18 01:15:49;;;;;;;13.60;7.30;;;;;;;4.92;100.00;101014.44;109016;1246;71438;-70
2023/04/18 01:18:19;;;;;;;10.20;7.00;;;;;;;4.87;100.00;101017.61;108912;1246;60693;-69
2023/04/18 01:20:51;;;;;;;11.80;7.50;;;;;;;4.85;100.00;101014.44;109094;1246;62572;-70
2023/04/18 01:23:20;;;;;;;11.40;7.30;;;;;;;4.83;100.00;101020.02;109190;1247;57728;-69
2023/04/18 01:25:49;;;;;;;11.70;7.00;;;;;;;4.82;100.00;101016.11;109169;1246;57339;-70
2023/04/18 01:28:22;;;;;;;13.20;6.80;;;;;;;4.80;100.00;101017.05;109358;1246;61694;-69
2023/04/18 01:30:51;;;;;;;10.10;6.60;;;;;;;4.78;100.00;101013.51;109279;1245;70118;-69
2023/04/18 01:33:19;;;;;;;10.90;7.10;;;;;;;4.76;100.00;101014.64;109204;1245;70359;-70
2023/04/18 01:35:48;;;;;;;10.50;7.10;;;;;;;4.75;100.00;101016.73;109135;1246;62719;-71
2023/04/18 01:38:17;;;;;;;11.50;6.60;;;;;;;4.74;100.00;101012.28;109195;1247;57675;-71
2023/04/18 01:40:48;;;;;;;11.10;6.90;;;;;;;4.74;100.00;101011.30;109272;1245;57580;-71
2023/04/18 01:43:16;;;;;;;9.70;7.00;;;;;;;4.73;100.00;101015.81;109164;1244;72865;-70
2023/04/18 01:45:45;;;;;;;13.70;9.00;;;;;;;4.71;100.00;101016.77;109343;1244;61145;-70
2023/04/18 01:48:14;;;;;;;19.40;9.90;;;;;;;4.69;100.00;101015.45;109231;1245;60055;-70
2023/04/18 01:50:43;;;;;;;19.80;10.00;;;;;;;4.69;100.00;101013.58;109012;1245;73933;-71
2023/04/18 01:53:11;;;;;;;18.70;9.20;;;;;;;4.68;100.00;101014.14;109099;1249;63389;-69
2023/04/18 01:55:41;;;;;;;17.90;9.10;;;;;;;4.66;100.00;101010.41;109118;1245;57608;-69
2023/04/18 01:58:10;;;;;;;14.40;7.50;;;;;;;4.69;100.00;101008.02;109331;1245;72763;-70
2023/04/18 02:00:38;;;;;;;12.90;7.80;;;;;;;4.71;100.00;101009.34;109243;1245;62226;-70
2023/04/18 02:03:07;;;;;;;12.90;7.40;;;;;;;4.71;100.00;101009.16;109363;1245;59237;-70
2023/04/18 02:05:36;;;;;;;13.70;7.60;;;;;;;4.69;100.00;101009.90;109288;1244;63297;-70
2023/04/18 02:08:07;;;;;;;14.90;7.80;;;;;;;4.70;100.00;101006.79;109242;1248;57598;-70
2023/04/18 02:10:38;;;;;;;13.30;7.50;;;;;;;4.73;100.00;101008.19;109350;1245;61303;-70
2023/04/18 02:13:07;;;;;;;14.80;7.00;;;;;;;4.75;100.00;101007.06;109156;1246;73777;-70
2023/04/18 02:15:36;;;;;;;11.30;6.90;;;;;;;4.75;100.00;101003.09;109268;1246;61318;-69
2023/04/18 02:18:05;;;;;;;13.00;7.50;;;;;;;4.75;100.00;101007.40;109326;1245;60034;-70
2023/04/18 02:20:35;;;;;;;11.20;6.90;;;;;;;4.74;100.00;101008.69;109354;1246;64223;-69
2023/04/18 02:23:04;;;;;;;10.80;6.50;;;;;;;4.69;100.00;101011.14;109346;1247;63398;-69
2023/04/18 02:25:33;;;;;;;12.80;7.20;;;;;;;4.70;100.00;101008.34;109272;1245;57749;-70
2023/04/18 02:28:02;;;;;;;12.40;8.00;;;;;;;4.70;100.00;101009.90;109297;1247;72130;-70
2023/04/18 02:30:31;;;;;;;11.10;7.10;;;;;;;4.74;100.00;101009.02;109355;1245;62047;-70
2023/04/18 02:33:02;;;;;;;11.10;6.30;;;;;;;4.77;100.00;101008.75;109186;1246;70417;-70
2023/04/18 02:35:31;;;;;;;11.50;7.20;;;;;;;4.77;100.00;101006.47;109160;1246;63077;-69
2023/04/18 02:38:00;;;;;;;10.90;6.70;;;;;;;4.78;100.00;101005.58;109186;1248;57713;-70
2023/04/18 02:40:29;;;;;;;12.50;6.80;;;;;;;4.76;100.00;101007.20;109187;1246;60424;-70
2023/04/18 02:43:01;;;;;;;14.50;7.10;;;;;;;4.76;100.00;101006.88;109210;1246;74072;-70
2023/04/18 02:45:31;;;;;;;12.10;6.10;;;;;;;4.72;100.00;101005.67;109250;1245;70984;-70
2023/04/18 02:48:00;;;;;;;12.20;6.60;;;;;;;4.73;100.00;101006.14;109271;1245;60914;-70
2023/04/18 02:50:30;;;;;;;11.70;6.10;;;;;;;4.73;100.00;101000.45;109248;1246;73111;-70
2023/04/18 02:52:59;;;;;;;11.80;6.80;;;;;;;4.75;100.00;100997.77;109347;1246;58137;-71
2023/04/18 02:55:36;;;;;;;10.50;5.80;;;;;;;4.74;100.00;100996.79;109381;1246;57586;-69
2023/04/18 02:58:05;;;;;;;9.50;5.90;;;;;;;4.68;100.00;100993.95;109174;1250;62264;-71
2023/04/18 03:00:36;;;;;;;14.60;6.50;;;;;;;4.63;100.00;100993.48;109323;1245;61038;-70
2023/04/18 03:03:11;;;;;;;10.70;6.50;;;;;;;4.57;100.00;100995.81;109415;1246;69639;-70
2023/04/18 03:05:48;;;;;;;12.90;7.00;;;;;;;4.53;100.00;101002.34;109070;1246;74332;-70
2023/04/18 03:08:17;;;;;;;12.50;7.20;;;;;;;4.58;100.00;101004.02;109393;1247;57734;-69
2023/04/18 03:10:47;;;;;;;9.90;6.40;;;;;;;4.62;100.00;101001.92;109328;1246;60204;-69
2023/04/18 03:13:16;;;;;;;11.90;7.40;;;;;;;4.65;100.00;100999.23;109257;1244;73335;-69
2023/04/18 03:15:46;;;;;;;9.90;6.40;;;;;;;4.68;100.00;100998.23;109350;1246;72545;-69
2023/04/18 03:18:15;;;;;;;14.00;6.60;;;;;;;4.70;100.00;101004.70;109236;1245;70420;-71
2023/04/18 03:20:45;;;;;;;12.20;6.60;;;;;;;4.71;100.00;101002.95;109236;1248;74532;-70
2023/04/18 03:23:14;;;;;;;13.30;6.50;;;;;;;4.76;100.00;101003.58;109220;1246;62520;-69
2023/04/18 03:25:42;;;;;;;12.80;6.90;;;;;;;4.80;100.00;101003.42;109282;1244;60824;-70
2023/04/18 03:28:11;;;;;;;13.80;6.60;;;;;;;4.74;100.00;101004.52;109214;1246;62881;-70
2023/04/18 03:30:41;;;;;;;13.50;7.20;;;;;;;4.79;100.00;101006.23;109262;1245;61678;-69
2023/04/18 03:33:10;;;;;;;13.10;7.30;;;;;;;4.83;100.00;101008.48;109281;1244;59822;-69
2023/04/18 03:35:39;;;;;;;12.90;7.10;;;;;;;4.85;100.00;101008.39;109340;1247;63126;-70
2023/04/18 03:38:08;;;;;;;13.10;7.10;;;;;;;4.86;100.00;101009.52;109210;1249;57627;-69
2023/04/18 03:40:39;;;;;;;11.00;7.00;;;;;;;4.96;100.00;101006.52;109266;1247;61319;-71
2023/04/18 03:43:12;;;;;;;11.10;6.30;;;;;;;4.98;100.00;101007.97;109264;1246;64439;-71
2023/04/18 03:45:43;;;;;;;13.20;7.50;;;;;;;4.98;100.00;101004.86;109245;1245;71683;-69
2023/04/18 03:48:13;;;;;;;14.20;8.20;;;;;;;4.96;100.00;101004.98;109118;1244;70577;-70
2023/04/18 03:50:43;;;;;;;16.70;8.10;;;;;;;4.97;100.00;101010.42;109125;1244;62914;-69
2023/04/18 03:53:13;;;;;;;13.30;7.30;;;;;;;4.99;100.00;101008.08;109165;1246;61973;-69
2023/04/18 03:55:42;;;;;;;15.00;8.40;;;;;;;5.07;100.00;101011.21;109210;1244;61139;-70
2023/04/18 03:58:12;;;;;;;13.60;7.70;;;;;;;5.10;100.00;101010.04;109153;1246;74910;-69
2023/04/18 04:00:41;;;;;;;12.70;7.50;;;;;;;5.16;100.00;101010.81;109499;1242;62011;-71
2023/04/18 04:03:10;;;;;;;12.90;6.60;;;;;;;5.24;100.00;101013.73;109531;1245;59841;-70
2023/04/18 04:05:40;;;;;;;16.90;7.60;;;;;;;5.34;100.00;101016.02;109401;1242;63364;-70
2023/04/18 04:08:09;;;;;;;10.50;6.70;;;;;;;5.37;100.00;101011.89;109388;1244;62930;-71
2023/04/18 04:10:37;;;;;;;11.60;6.40;;;;;;;5.39;100.00;101015.27;109650;1243;61613;-70
2023/04/18 04:13:06;;;;;;;14.10;7.60;;;;;;;5.41;100.00;101017.07;109564;1242;73325;-71
2023/04/18 04:15:37;;;;;;;10.10;6.80;;;;;;;5.51;100.00;101015.58;109497;1243;73023;-70
2023/04/18 04:18:07;;;;;;;10.80;7.10;;;;;;;5.61;100.00;101015.48;109413;1242;60470;-70
2023/04/18 04:20:38;;;;;;;12.60;7.80;;;;;;;5.68;100.00;101019.64;109485;1242;63367;-70
2023/04/18 04:23:11;;;;;;;13.70;7.50;;;;;;;5.75;100.00;101024.83;109508;1245;62416;-68
2023/04/18 04:25:40;;;;;;;14.80;8.90;;;;;;;5.90;100.00;101026.21;109573;1243;57688;-69
2023/04/18 04:28:15;;;;;;;15.00;8.20;;;;;;;5.93;100.00;101024.20;109468;1242;73543;-70
2023/04/18 04:30:52;;;;;;;12.00;6.00;;;;;;;6.16;100.00;101025.81;109536;1243;62031;-71
2023/04/18 04:33:27;;;;;;;9.80;6.10;;;;;;;6.35;100.00;101027.64;109485;1242;59526;-70
2023/04/18 04:36:00;;;;;;;8.50;5.40;;;;;;;6.47;100.00;101030.72;109068;1247;63342;-71
2023/04/18 04:38:29;;;;;;;9.20;6.10;;;;;;;6.47;100.00;101025.67;109206;1245;57754;-70
2023/04/18 04:40:59;;;;;;;11.20;6.90;;;;;;;6.52;100.00;101035.83;109439;1242;60697;-71
2023/04/18 04:43:28;;;;;;;12.20;7.10;;;;;;;6.51;100.00;101038.29;109326;1242;73262;-70
2023/04/18 04:45:57;;;;;;;9.20;5.30;;;;;;;6.49;100.00;101041.48;109252;1243;62008;-70
2023/04/18 04:48:26;;;;;;;11.10;5.60;;;;;;;6.57;100.00;101043.19;109503;1242;70494;-70
2023/04/18 04:50:57;;;;;;;10.60;6.60;;;;;;;6.59;100.00;101047.73;109470;1243;74171;-70
2023/04/18 04:53:30;;;;;;;9.50;6.40;;;;;;;6.56;100.00;101048.05;109357;1247;57652;-70
2023/04/18 04:56:01;;;;;;;11.80;6.00;;;;;;;6.66;100.00;101051.71;109643;1243;61144;-71
2023/04/18 04:58:30;;;;;;;10.40;6.30;;;;;;;6.77;100.00;101049.95;109583;1242;73325;-70
2023/04/18 05:01:03;;;;;;;9.60;5.20;;;;;;;6.89;100.00;101049.16;109383;1243;70605;-70
2023/04/18 05:03:32;;;;;;;9.20;5.70;;;;;;;7.00;100.00;101051.73;109363;1246;59272;-70
2023/04/18 05:06:04;;;;;;;10.30;6.00;;;;;;;7.06;100.00;101050.67;109344;1246;63244;-71
2023/04/18 05:08:33;;;;;;;7.60;4.60;;;;;;;7.29;100.00;101049.66;109478;1245;62102;-70
2023/04/18 05:11:02;;;;;;;8.40;5.90;;;;;;;7.30;100.00;101053.24;109483;1243;61766;-69
2023/04/18 05:13:31;;;;;;;13.40;7.30;;;;;;;7.18;100.00;101052.84;109505;1244;63801;-70
2023/04/18 05:16:00;;;;;;;7.10;5.20;;;;;;;7.26;100.00;101048.25;109601;1242;72286;-72
2023/04/18 05:18:29;;;;;;;10.60;6.50;;;;;;;7.35;100.00;101048.80;109645;1242;59570;-70
2023/04/18 05:21:00;;;;;;;14.20;8.00;;;;;;;7.47;100.00;101051.80;109564;1244;63254;-69
2023/04/18 05:23:29;;;;;;;10.50;6.60;;;;;;;7.55;100.00;101052.41;109482;1243;62135;-69
2023/04/18 05:25:58;;;;;;;9.80;6.00;;;;;;;7.65;100.00;101050.14;109471;1243;60369;-69
2023/04/18 05:28:27;;;;;;;9.00;5.60;;;;;;;7.67;100.00;101048.96;109397;1243;74838;-80
2023/04/18 05:30:59;;;;;;;12.00;6.30;;;;;;;7.81;100.00;101052.57;109493;1243;61699;-74
2023/04/18 05:33:30;;;;;;;10.90;6.40;;;;;;;7.89;100.00;101050.86;109382;1243;69615;-73
2023/04/18 05:36:00;;;;;;;9.60;5.30;;;;;;;8.09;100.00;101048.56;109140;1247;62768;-74
2023/04/18 05:38:29;;;;;;;9.80;5.40;;;;;;;8.21;100.00;101053.92;109421;1243;63039;-73
2023/04/18 05:40:59;;;;;;;8.00;4.90;;;;;;;8.20;100.00;101055.02;109513;1243;61616;-73
2023/04/18 05:43:27;;;;;;;7.40;4.70;;;;;;;8.19;100.00;101052.14;109554;1242;74213;-72
2023/04/18 05:45:56;;;;;;;11.00;5.60;;;;;;;8.31;100.00;101051.95;109643;1242;61940;-74
2023/04/18 05:48:26;;;;;;;10.00;5.20;;;;;;;8.35;100.00;101054.52;109653;1243;59260;-73
2023/04/18 05:50:55;;;;;;;7.90;5.20;;;;;;;8.31;100.00;101056.35;109615;1244;72198;-74
2023/04/18 05:53:24;;;;;;;11.00;5.60;;;;;;;8.34;100.00;101057.53;109491;1245;63482;-74
2023/04/18 05:55:53;;;;;;;10.40;6.20;;;;;;;8.42;100.00;101061.27;109616;1243;60881;-74
2023/04/18 05:58:21;;;;;;;10.80;6.10;;;;;;;8.38;100.00;101060.46;109471;1242;74194;-74
2023/04/18 06:00:52;;;;;;;9.80;5.60;;;;;;;8.56;100.00;101062.39;109418;1245;61399;-74
2023/04/18 06:03:21;;;;;;;10.30;5.60;;;;;;;8.59;100.00;101056.98;109290;1243;70613;-73
2023/04/18 06:05:50;;;;;;;10.90;5.40;;;;;;;8.64;100.00;101053.38;109368;1243;73201;-77
2023/04/18 06:08:19;;;;;;;10.80;6.10;;;;;;;8.86;100.00;101054.67;109350;1244;63463;-75
2023/04/18 06:10:47;;;;;;;11.60;6.40;;;;;;;8.91;100.00;101054.23;109381;1243;60822;-74
2023/04/18 06:13:16;;;;;;;12.80;6.20;;;;;;;9.06;100.00;101054.02;109267;1245;63552;-73
2023/04/18 06:15:45;;;;;;;7.30;5.20;;;;;;;9.26;100.00;101052.80;109212;1242;72270;-73
2023/04/18 06:18:14;;;;;;;9.30;5.10;;;;;;;9.18;100.00;101040.73;109299;1242;70861;-73
2023/04/18 06:20:44;;;;;;;9.60;5.70;;;;;;;9.01;100.00;101045.47;109554;1243;63454;-74
2023/04/18 06:23:12;;;;;;;10.20;5.40;;;;;;;9.17;100.00;101054.23;109471;1243;61658;-74
2023/04/18 06:25:41;;;;;;;8.40;4.50;;;;;;;9.28;99.47;101054.21;109358;1244;57762;-74
2023/04/18 06:28:10;;;;;;;10.40;4.40;;;;;;;9.44;99.36;101051.34;109364;1244;62961;-73
2023/04/18 06:30:39;;;;;;;6.10;4.10;;;;;;;9.61;100.00;101057.41;109428;1245;60811;-70
2023/04/18 06:33:10;;;;;;;9.20;4.60;;;;;;;9.69;99.38;101056.85;109354;1243;70531;-71
2023/04/18 06:35:40;;;;;;;10.00;4.60;;;;;;;9.66;97.12;101056.38;109310;1245;62868;-69
2023/04/18 06:38:10;;;;;;;8.20;4.30;;;;;;;9.84;98.12;101057.67;109519;1246;60488;-74
2023/04/18 06:40:39;;;;;;;7.20;4.30;;;;;;;9.87;98.11;101059.95;109516;1245;57192;-70
2023/04/18 06:43:08;;;;;;;7.50;3.70;;;;;;;10.04;97.98;101056.72;109557;1243;74290;-70
2023/04/18 06:45:37;;;;;;;9.60;4.00;;;;;;;10.02;94.35;101057.39;109535;1243;63049;-71
2023/04/18 06:48:07;;;;;;;8.60;4.00;;;;;;;10.18;94.89;101057.78;109589;1244;60381;-72
2023/04/18 06:50:36;;;;;;;19.70;4.50;;;;;;;10.31;94.17;101059.02;109409;1243;62873;-71
2023/04/18 06:53:05;;;;;;;9.10;3.80;;;;;;;10.36;94.71;101057.28;109583;1245;57398;-75
2023/04/18 06:55:35;;;;;;;8.30;3.70;;;;;;;10.39;94.00;101060.08;109586;1243;60586;-72
2023/04/18 06:58:04;;;;;;;9.10;4.10;;;;;;;10.36;90.89;101057.48;109461;1246;74276;-72
2023/04/18 07:00:33;;;;;;;8.20;4.00;;;;;;;10.63;92.89;101059.50;109694;1243;72798;-73
2023/04/18 07:03:08;;;;;;;12.20;4.00;;;;;;;10.75;92.48;101062.15;109506;1243;70366;-70
2023/04/18 07:05:39;;;;;;;7.80;4.30;;;;;;;10.70;88.24;101059.91;109709;1242;73610;-69
2023/04/18 07:08:08;;;;;;;7.30;3.30;;;;;;;10.90;90.03;101062.89;109458;1246;61834;-68
2023/04/18 07:10:36;;;;;;;8.00;3.60;;;;;;;10.83;89.09;101060.55;109541;1245;60883;-69
2023/04/18 07:13:05;;;;;;;7.40;3.80;;;;;;;10.76;89.63;101063.52;109520;1245;62792;-69
2023/04/18 07:15:35;;;;;;;10.20;4.90;;;;;;;10.65;88.95;101064.98;109547;1243;61700;-69
2023/04/18 07:18:03;;;;;;;8.50;3.90;;;;;;;10.68;90.55;101066.80;109532;1243;71203;-69
2023/04/18 07:20:32;;;;;;;8.20;3.80;;;;;;;10.73;88.54;101064.55;109518;1245;64448;-70
2023/04/18 07:23:01;;;;;;;6.90;3.70;;;;;;;10.34;88.51;101063.70;109179;1250;57178;-71
2023/04/18 07:25:30;;;;;;;7.30;4.00;;;;;;;10.32;90.62;101067.98;109485;1243;57698;-70
2023/04/18 07:27:59;;;;;;;6.60;3.60;;;;;;;10.51;91.84;101069.52;109373;1243;62190;-70
2023/04/18 07:30:28;;;;;;;9.50;4.00;;;;;;;10.68;89.36;101072.08;109440;1243;61852;-69
2023/04/18 07:32:57;;;;;;;9.30;3.90;;;;;;;10.53;88.64;101072.90;109395;1243;60091;-69
2023/04/18 07:35:26;;;;;;;10.40;4.10;;;;;;;10.42;90.34;101071.68;109478;1245;62618;-69
2023/04/18 07:37:54;;;;;;;12.00;4.50;;;;;;;10.41;90.74;101074.05;109590;1244;61219;-69
2023/04/18 07:40:23;;;;;;;9.50;3.90;;;;;;;10.44;92.13;101074.52;109485;1245;60910;-69
2023/04/18 07:42:53;;;;;;;13.60;4.70;;;;;;;10.51;91.72;101079.09;109577;1244;64111;-74
2023/04/18 07:45:23;;;;;;;12.20;4.40;;;;;;;10.45;92.84;101077.07;109437;1244;62336;-68
2023/04/18 07:47:52;;;;;;;9.90;3.90;;;;;;;10.49;92.05;101077.83;109575;1243;60727;-69
2023/04/18 07:50:23;;;;;;;6.50;3.60;;;;;;;10.59;91.85;101074.94;109522;1243;62478;-70
2023/04/18 07:52:51;;;;;;;5.80;3.10;;;;;;;10.59;90.88;101075.98;109486;1244;61326;-70
2023/04/18 07:55:20;;;;;;;7.70;3.70;;;;;;;10.63;91.00;101076.93;109548;1243;60921;-70
2023/04/18 07:57:49;;;;;;;9.00;3.60;;;;;;;10.63;90.23;101078.15;109414;1243;64210;-71
2023/04/18 08:00:18;;;;;;;9.90;4.40;;;;;;;10.42;89.94;101076.09;109473;1242;71524;-71
2023/04/18 08:02:47;;;;;;;9.40;4.70;;;;;;;10.52;90.93;101080.27;109367;1243;59789;-70
2023/04/18 08:05:18;;;;;;;7.30;3.80;;;;;;;10.64;91.24;101079.83;109377;1243;62543;-70
2023/04/18 08:07:47;;;;;;;8.50;3.80;;;;;;;10.84;91.36;101084.59;109456;1243;62084;-71
2023/04/18 08:10:16;;;;;;;8.10;4.60;;;;;;;10.82;90.40;101086.25;109544;1243;57751;-70
2023/04/18 08:12:45;;;;;;;9.10;4.60;;;;;;;10.72;89.56;101086.39;109540;1243;63029;-69
2023/04/18 08:15:14;;;;;;;7.10;3.70;;;;;;;10.88;89.52;101091.11;109492;1243;61491;-72
2023/04/18 08:17:44;;;;;;;6.70;3.70;;;;;;;10.92;89.76;101093.11;109533;1242;59239;-69
2023/04/18 08:20:13;;;;;;;11.90;3.80;;;;;;;11.06;88.74;101090.20;109489;1243;72291;-71
2023/04/18 08:22:42;;;;;;;9.50;4.10;;;;;;;11.04;87.99;101094.02;109372;1243;61677;-69
2023/04/18 08:25:30;;;;;;;11.20;4.10;;;;;;;11.21;88.52;101095.27;109462;1244;57573;-70
2023/04/18 08:27:59;;;;;;;8.00;4.00;;;;;;;11.33;87.23;101099.66;109499;1243;62208;-70
2023/04/18 08:30:28;;;;;;;9.80;3.60;;;;;;;11.37;87.69;101098.38;109402;1244;60996;-70
2023/04/18 08:33:00;;;;;;;12.00;4.20;;;;;;;11.48;88.35;101100.02;109386;1244;59566;-70
2023/04/18 08:35:30;;;;;;;12.00;3.40;;;;;;;11.72;87.39;101098.50;109301;1247;73949;-70
2023/04/18 08:38:01;;;;;;;10.00;4.20;;;;;;;11.66;86.70;101103.63;109337;1245;57671;-71
2023/04/18 08:40:30;;;;;;;9.70;3.50;;;;;;;11.81;86.13;101104.90;109525;1244;61129;-72
2023/04/18 08:43:03;;;;;;;14.50;3.70;;;;;;;11.99;86.21;101105.70;109525;1243;74025;-71
2023/04/18 08:45:33;;;;;;;12.40;4.00;;;;;;;11.94;85.69;101104.64;109371;1243;62256;-70
2023/04/18 08:48:02;;;;;;;14.40;4.30;;;;;;;11.98;84.96;101102.29;109528;1243;71175;-69
2023/04/18 08:50:31;;;;;;;8.90;3.80;;;;;;;11.96;84.99;101102.43;109524;1243;62919;-72
2023/04/18 08:53:00;;;;;;;14.20;3.60;;;;;;;12.01;85.26;101107.50;109480;1243;57642;-69
2023/04/18 08:55:29;;;;;;;9.30;4.10;;;;;;;11.92;85.12;101106.35;109547;1243;61701;-70
2023/04/18 08:57:58;;;;;;;11.10;3.90;;;;;;;11.65;86.18;101106.70;109519;1244;74102;-70
2023/04/18 09:00:28;;;;;;;10.50;3.80;;;;;;;11.66;86.41;101105.20;109567;1243;61200;-72
2023/04/18 09:03:02;;;;;;;7.80;3.70;;;;;;;11.42;87.35;101107.59;109198;1243;70159;-70
2023/04/18 09:05:31;;;;;;;11.70;3.40;;;;;;;11.58;87.69;101105.93;109568;1243;71682;-70
2023/04/18 09:08:22;;;;;;;10.20;3.90;;;;;;;11.70;87.66;101106.35;109571;1244;57609;-72
2023/04/18 09:10:53;;;;;;;13.10;3.60;;;;;;;11.64;88.00;101109.57;109547;1245;57709;-70
2023/04/18 09:13:46;;;;;;;10.10;3.90;;;;;;;11.59;87.99;101109.39;109533;1243;73561;-71
2023/04/18 09:16:19;;;;;;;8.10;3.70;;;;;;;11.40;88.71;101111.04;109422;1243;72507;-72
2023/04/18 09:19:13;;;;;;;11.20;4.20;;;;;;;11.31;89.44;101110.80;109120;1243;60354;-71
2023/04/18 09:21:46;;;;;;;11.30;3.90;;;;;;;11.24;90.48;101112.68;109342;1244;62965;-71
2023/04/18 09:24:21;;;;;;;15.60;5.80;;;;;;;11.23;90.90;101110.11;109143;1245;61342;-69
2023/04/18 09:26:52;;;;;;;9.20;4.00;;;;;;;11.17;90.66;101110.01;109398;1243;57625;-70
2023/04/18 09:29:42;;;;;;;12.20;4.20;;;;;;;11.09;90.91;101113.55;109414;1243;71545;-71
2023/04/18 09:32:22;;;;;;;14.30;4.10;;;;;;;11.07;91.34;101114.93;109268;1243;72192;-71
2023/04/18 09:35:04;;;;;;;11.60;4.20;;;;;;;11.02;91.45;101116.27;109308;1243;59601;-70
2023/04/18 09:37:34;;;;;;;12.50;4.70;;;;;;;10.98;92.27;101114.48;109301;1243;65192;-70
2023/04/18 09:40:17;;;;;;;10.30;4.40;;;;;;;10.95;93.72;101115.91;109215;1243;63945;-70
2023/04/18 09:42:49;;;;;;;10.20;4.20;;;;;;;10.93;94.92;101114.29;109129;1243;61635;-71
2023/04/18 09:45:18;;;;;;;9.90;4.30;;;;;;;11.01;94.14;101116.89;109284;1243;62948;-70
2023/04/18 09:47:47;;;;;;;10.00;4.00;;;;;;;11.01;94.44;101120.00;109330;1243;72256;-70
2023/04/18 09:50:17;;;;;;;8.40;4.20;;;;;;;10.90;95.06;101119.88;109272;1244;69909;-72
2023/04/18 09:52:47;;;;;;;10.80;4.00;;;;;;;10.98;95.17;101117.09;109158;1243;73799;-72
2023/04/18 09:55:18;;;;;;;9.60;4.40;;;;;;;10.98;95.34;101115.52;109034;1243;57075;-71
2023/04/18 09:57:50;;;;;;;12.20;4.70;;;;;;;10.99;95.96;101117.91;109146;1243;61250;-76
2023/04/18 10:00:25;;;;;;;10.50;4.60;;;;;;;11.00;96.41;101115.70;109397;1243;73940;-72
2023/04/18 10:03:09;;;;;;;11.50;3.70;;;;;;;10.92;98.20;101112.41;109242;1243;72196;-69
2023/04/18 10:05:40;;;;;;;10.30;4.30;;;;;;;10.94;97.85;101112.33;109377;1243;60434;-68
2023/04/18 10:08:10;;;;;;;11.50;4.20;;;;;;;10.90;98.29;101112.03;109382;1243;73941;-69
2023/04/18 10:10:40;;;;;;;9.00;4.70;;;;;;;10.93;98.37;101109.95;109400;1243;62813;-69
2023/04/18 10:13:12;;;;;;;13.70;4.90;;;;;;;10.91;98.64;101109.02;109373;1243;61502;-69
2023/04/18 10:15:42;;;;;;;10.10;4.30;;;;;;;10.89;98.41;101107.44;109424;1243;63667;-69
2023/04/18 10:18:17;;;;;;;9.90;4.60;;;;;;;10.87;98.14;101106.65;109307;1243;72170;-69
2023/04/18 10:20:47;;;;;;;11.30;5.30;;;;;;;10.83;98.52;101106.20;109425;1243;70917;-77
2023/04/18 10:23:33;;;;;;;9.60;4.50;;;;;;;10.79;99.31;101104.92;109227;1248;74254;-69
2023/04/18 10:26:05;;;;;;;13.70;4.70;;;;;;;10.68;99.98;101106.57;109182;1247;63135;-69
2023/04/18 10:28:55;;;;;;;10.30;4.70;;;;;;;10.56;100.00;101104.76;109405;1242;60970;-69
2023/04/18 10:31:28;;;;;;;13.60;5.70;;;;;;;10.59;100.00;101100.71;109275;1246;62765;-68
2023/04/18 10:33:59;;;;;;;9.50;4.80;;;;;;;10.60;100.00;101094.71;109361;1244;70848;-68
2023/04/18 10:36:31;;;;;;;8.30;4.80;;;;;;;10.58;100.00;101090.13;109458;1243;59613;-69
2023/04/18 10:39:19;;;;;;;8.80;4.60;;;;;;;10.60;100.00;101088.92;109239;1243;341445;-69
2023/04/18 10:41:49;;;;;;;7.10;4.30;;;;;;;10.65;100.00;101080.42;109338;1247;57267;-68
2023/04/18 10:44:23;;;;;;;10.30;4.80;;;;;;;10.68;100.00;101069.10;109378;1243;61296;-71
2023/04/18 10:46:52;;;;;;;15.90;4.80;;;;;;;10.79;100.00;101061.19;109453;1247;62890;-76
2023/04/18 10:49:26;;;;;;;10.20;4.70;;;;;;;10.97;100.00;101060.66;109512;1242;71411;-72
2023/04/18 10:52:01;;;;;;;14.00;4.90;;;;;;;11.10;100.00;101061.70;109327;1243;59548;-73
2023/04/18 10:54:57;;;;;;;9.40;4.20;;;;;;;11.26;100.00;101075.27;109386;1243;73899;-72
2023/04/18 10:57:41;;;;;;;13.00;5.40;;;;;;;11.39;100.00;101075.54;109533;1243;57752;-72
2023/04/18 11:00:14;;;;;;;9.30;4.70;;;;;;;11.39;100.00;101079.72;109536;1243;57713;-72
2023/04/18 11:02:51;;;;;;;;;;;;;;;11.33;100.00;101079.79;109371;1243;73722;-72
2023/04/18 11:05:26;;;;;;;11.80;5.30;;;;;;;11.26;100.00;101087.24;109302;1243;72166;-71
2023/04/18 11:07:55;;;;;;;14.70;5.20;;;;;;;11.23;100.00;101084.70;109304;1243;60475;-71
2023/04/18 11:10:26;;;;;;;10.70;5.80;;;;;;;11.20;100.00;101084.92;109570;1242;62422;-71
2023/04/18 11:12:56;;;;;;;11.50;5.00;;;;;;;11.14;100.00;101080.23;109286;1247;57054;-72
2023/04/18 11:15:25;;;;;;;9.00;4.60;;;;;;;11.20;100.00;101081.08;109445;1243;60215;-72
2023/04/18 11:18:02;;;;;;;11.70;4.70;;;;;;;11.19;100.00;101076.95;109490;1243;74043;-74
2023/04/18 11:20:45;;;;;;;14.90;5.10;;;;;;;11.29;100.00;101077.67;109235;1248;61516;-75
2023/04/18 11:23:18;;;;;;;10.70;4.40;;;;;;;11.30;100.00;101071.80;109298;1247;68705;-74
2023/04/18 11:25:53;;;;;;;8.00;5.10;;;;;;;11.22;100.00;101070.62;109364;1243;63299;-74
2023/04/18 11:28:23;;;;;;;11.00;4.90;;;;;;;11.30;100.00;101070.94;109260;1243;57708;-74